x

8454049 - Quonset Point, Ri (qptr1) Weather Station

10:54 - Thu 24th Jul 2014 All times are EDT. -4 hours from GMT.

  • Wind
    8mph, 10mph gusts
  • Sea Temp 72°f
  • Aire Temp 76°f
  • Sea Pressure 1009.2mb
  • 8454049 - Quonset Point, Ri
  • 8454049 - Quonset Point, Ri

More Historic Weather Station data

Upgrade to MSW Pro to gain access to the past 30 days of data for over 8000 Wavebouys and Weather Stations around the globe.

Join Pro

Comparision Forecast

View Surf forecast
   
jue 07/24 10:54 8 10 mph 1009.2mb 72f 76f
10:48 8 11 mph 1009.2mb 72f 76f
10:42 9 11 mph 1009.3mb 72f 76f
10:36 9 11 mph 1009.3mb 72f 76f
10:30 8 11 mph 1009.4mb 72f 76f
10:24 9 13 mph 1009.3mb 72f 76f
10:18 9 13 mph 1009.3mb 72f 76f
10:12 8 13 mph 1009.2mb 72f 76f
10:06 10 13 mph 1009.1mb 72f 76f
10:00 10 13 mph 1009.2mb 72f 76f
9:54 9 13 mph 1009.2mb 72f 76f
9:48 9 14 mph 1009.1mb 72f 76f
9:42 10 14 mph 1008.9mb 72f 76f
9:36 13 16 mph 1008.8mb 72f 75f
9:30 8 11 mph 1008.8mb 72f 76f
9:24 10 14 mph 1008.8mb 72f 75f
9:18 9 14 mph 1008.8mb 72f 75f
9:12 10 13 mph 1008.9mb 72f 75f
9:06 9 15 mph 1008.9mb 72f 75f
9:00 13 15 mph 1008.7mb 72f 75f
8:54 13 16 mph 1008.7mb 72f 74f
8:48 11 14 mph 1008.7mb 72f 74f
8:42 9 14 mph 1008.5mb 72f 75f
8:36 10 15 mph 1008.3mb 72f 74f
8:30 13 16 mph 1008.3mb 72f 74f
8:24 14 17 mph 1008.4mb 73f 74f
8:18 11 14 mph 1008.3mb 73f 74f
8:12 11 15 mph 1008.3mb 73f 74f
8:06 11 14 mph 1008.3mb 73f 74f
8:00 11 14 mph 1008.3mb 73f 74f
7:54 9 13 mph 1008.2mb 73f 73f
7:48 10 13 mph 1008.2mb 73f 73f
7:42 10 13 mph 1008.1mb 73f 73f
7:36 10 14 mph 1008mb 73f 73f
7:30 8 13 mph 1008mb 73f 73f
7:24 9 13 mph 1008.1mb 73f 73f
7:18 8 10 mph 1008.1mb 73f 73f
7:12 8 10 mph 1008.2mb 73f 73f
7:06 8 10 mph 1008.2mb 73f 72f
7:00 8 9 mph 1008.2mb 73f 72f
6:54 5 6 mph 1008.3mb 73f 72f
6:48 5 7 mph 1008.3mb 73f 72f
6:42 6 8 mph 1008.3mb 73f 71f
6:36 5 7 mph 1008.1mb 73f 71f
6:30 6 7 mph 1008.1mb 73f 71f
6:24 5 6 mph 1008mb 73f 71f
6:18 3 7 mph 1008mb 73f 71f
6:12 5 6 mph 1007.9mb 73f 71f
6:06 6
mph
1007.8mb 73f 71f
6:00 2 3 mph 1007.9mb 73f 71f
5:54 2 6 mph 1007.9mb 73f 71f
5:48 5 6 mph 1008mb 73f 71f
5:42 5 6 mph 1007.9mb 73f 71f
5:36 5 7 mph 1007.9mb 73f 71f
5:30 3 5 mph 1007.9mb 73f 71f
5:24 3 5 mph 1008mb 73f 71f
5:18 5 6 mph 1008mb 73f 71f
5:12 6
mph
1008.1mb 73f 71f
5:06 6 7 mph 1008.1mb 73f 71f
5:00 5 6 mph 1008.1mb 73f 71f
4:54 3 7 mph 1007.9mb 73f 71f
4:48 5 9 mph 1007.9mb 73f 71f
4:42 6 9 mph 1008mb 73f 71f
4:36 6 8 mph 1008mb 73f 70f
4:30 6 7 mph 1007.9mb 73f 70f
4:24 6
mph
1007.9mb 73f 70f
4:18 6
mph
1007.8mb 73f 70f
4:12 6 7 mph 1007.7mb 73f 70f
4:06 6
mph
1007.7mb 73f 70f
4:00 6
mph
1007.7mb 73f 70f
3:54 3 5 mph 1007.7mb 73f 70f
3:48 2 5 mph 1007.5mb 73f 70f
3:42 5 6 mph 1007.6mb 73f 70f
3:36 5 6 mph 1007.7mb 73f 70f
3:30 5
mph
1007.7mb 73f 70f
3:24 3 5 mph 1007.7mb 73f 70f
3:18 3 5 mph 1007.6mb 73f 70f
3:12 3 5 mph 1007.7mb 73f 70f
3:06 5 6 mph 1007.7mb 73f 70f
3:00 5 6 mph 1007.8mb 73f 71f
2:54 3 5 mph 1007.6mb 73f 71f
2:48 5
mph
1007.4mb 73f 71f
2:42 5
mph
1007.4mb 73f 70f
2:36 2 3 mph 1007.4mb 73f 71f
2:30 2 3 mph 1007.5mb 73f 71f
2:24 2 3 mph 1007.5mb 73f 71f
2:18 2 6 mph 1007.4mb 73f 71f
2:12 2 5 mph 1007.5mb 73f 71f
2:06 3 5 mph 1007.5mb 73f 71f
2:00 3 6 mph 1007.4mb 73f 71f
1:54 5 7 mph 1007.6mb 73f 71f
1:48 5 7 mph 1007.7mb 73f 71f
1:42 3 6 mph 1007.8mb 73f 71f
1:36 2 5 mph 1007.9mb 73f 72f
1:30 3 5 mph 1008mb 73f 72f
1:24  -  5 mph 1007.9mb 73f 72f
1:18 6 8 mph 1008mb 73f 72f
1:12 7 10 mph 1008.2mb 73f 72f
1:06 10
mph
1008.3mb 73f 72f
1:00 9 11 mph 1007.6mb 74f 72f
12:54 11 13 mph 1007.4mb 74f 72f
12:48 11 13 mph 1007.5mb 74f 73f
12:42 9 11 mph 1007.5mb 74f 73f
12:36 9 10 mph 1007.6mb 74f 73f
12:30 9 11 mph 1007.9mb 74f 73f
12:24 9 11 mph 1008.1mb 74f 73f
12:18 10 11 mph 1008.3mb 74f -
12:12 10 11 mph 1008.4mb 74f -
12:06 7
mph
1008.2mb 74f -
12:00 6 8 mph 1008.3mb 74f 73f
mié 07/23 11:54 5 8 mph 1008.5mb 74f 73f
11:48 9 11 mph 1008.7mb 73f 73f
11:42 11 14 mph 1009mb 73f 73f
11:36 10 11 mph 1009.2mb 74f 74f
11:30 8 11 mph 1009.3mb 74f 74f
11:24 9 11 mph 1009.4mb 74f 74f
11:18 8 13 mph 1010mb 74f 74f
11:12 9 11 mph 1010.3mb 74f 74f
11:06 8 13 mph 1010.3mb 74f 74f
11:00 7 13 mph 1010.1mb 74f 73f
10:54 8 13 mph 1010.2mb 74f 74f
10:48 10 15 mph 1009.7mb 74f 73f
10:42 14 16 mph 1009.6mb 74f 73f
10:36 14 15 mph 1009.6mb 74f 73f
10:30 13 14 mph 1009.7mb 74f 73f
10:24 13 16 mph 1009.7mb 74f 73f
10:18 14 16 mph 1009.7mb 74f 73f
10:12 13 15 mph 1009.7mb 74f 73f
10:06 11 13 mph 1009.8mb 74f 73f
10:00 11 14 mph 1009.9mb 74f 74f
9:54 11 14 mph 1010mb 74f 74f
9:48 11 14 mph 1010.1mb 73f 74f
9:42 10 14 mph 1010mb 74f 74f
9:36 10 16 mph 1010mb 74f 74f
9:30 13 17 mph 1010.2mb 74f 74f
9:24 13 17 mph 1010mb 74f 74f
9:18 14 17 mph 1009.8mb 74f 74f
9:12 14 16 mph 1009.9mb 74f 74f
9:06 14 18 mph 1009.9mb 74f 74f
9:00 15 20 mph 1009.8mb 73f 74f
8:54 16 20 mph 1009.6mb 73f 74f
8:48 15 20 mph 1009.4mb 73f 74f
8:42 15 17 mph 1009.4mb 73f 74f
8:36 13 17 mph 1009.4mb 73f 74f
8:30 14 16 mph 1009.3mb 73f 74f
8:24 13 18 mph 1009.1mb 74f 74f
8:18 16 17 mph 1009mb 73f 74f
8:12 16 21 mph 1009mb 73f 74f
8:06 17 22 mph 1008.9mb 73f 74f
8:00 17 22 mph 1008.9mb 74f 74f
7:54 18 24 mph 1009mb 73f 75f
7:48 17 25 mph 1009.1mb 73f 75f
7:42 17 21 mph 1009.2mb 74f 75f
7:36 17 21 mph 1009.1mb 74f 75f
7:30 17 23 mph 1009.3mb 74f 75f
7:24 18 22 mph 1009.2mb 74f 75f
7:18 16 21 mph 1009.2mb 74f 75f
7:12 18 24 mph 1009.1mb 74f 75f
7:06 20 24 mph 1009.1mb 74f 75f
7:00 21 23 mph 1009mb 74f 75f
6:54 20 25 mph 1009mb 74f 76f
6:48 22 26 mph 1009.1mb 75f 76f
6:42 23 28 mph 1009.1mb 75f 76f
6:36 17 23 mph 1009.1mb 75f 76f
6:30 22 28 mph 1009mb 75f 76f
6:24 22 25 mph 1008.9mb 75f 76f
6:18 22 26 mph 1008.8mb 75f 76f
6:12 22 26 mph 1008.8mb 75f 77f
6:06 23 30 mph 1008.7mb 75f 77f
6:00 23 29 mph 1008.8mb 75f 77f
5:54 22 29 mph 1008.9mb 75f 78f
5:48 24 29 mph 1008.8mb 75f 78f
5:42 23 30 mph 1008.9mb 75f 78f
5:36 24 29 mph 1009mb 75f 78f
5:30 22 26 mph 1009mb 75f 78f
5:24 21 28 mph 1009.2mb 75f 78f
5:18 23 26 mph 1009.3mb 75f 78f
5:12 22 26 mph 1009.3mb 75f 78f
5:06 21 26 mph 1009.4mb 75f 78f
5:00 23 31 mph 1009.4mb 75f 78f
4:54 23 26 mph 1009.4mb 75f 78f
4:48 21 25 mph 1009.4mb 75f 78f
4:42 22 29 mph 1009.4mb 75f 78f
4:36 23 29 mph 1009.5mb 75f 78f
4:30 25 30 mph 1009.6mb 75f 78f
4:24 22 26 mph 1009.6mb 75f 79f
4:18 20 26 mph 1009.7mb 75f 79f
4:12 22 26 mph 1009.9mb 75f 79f
4:06 23 29 mph 1010mb 75f 79f
4:00 21 26 mph 1009.9mb 75f 79f
3:54 22 25 mph 1010mb 74f 79f
3:48 20 26 mph 1010.1mb 74f 79f
3:42 22 26 mph 1010.2mb 74f 79f
3:36 18 28 mph 1010.2mb 74f 79f
3:30 24 30 mph 1010.2mb 74f 79f
3:24 22 28 mph 1010.4mb 74f 80f
3:18 24 28 mph 1010.3mb 74f 79f
3:12 22 30 mph 1010.5mb 74f 80f
3:06 23 31 mph 1010.5mb 74f 80f
3:00 24 28 mph 1010.6mb 74f 79f
2:54 21 25 mph 1010.8mb 74f 80f
2:48 22 29 mph 1010.7mb 74f 80f
2:42 20 25 mph 1010.8mb 74f 80f
2:36 18 25 mph 1010.9mb 74f 80f
2:30 22 25 mph 1010.9mb 74f 80f
2:24 22 24 mph 1010.8mb 74f 80f
2:18 18 22 mph 1011mb 74f 80f
2:12 15 24 mph 1011mb 74f 80f
2:06 21 25 mph 1011mb 74f 80f
2:00 20 23 mph 1011.1mb 74f 80f
1:54 16 22 mph 1011.2mb 74f 80f
1:48 18 22 mph 1011.2mb 74f 80f
1:42 17 23 mph 1011.3mb 74f 80f
1:36 18 24 mph 1011.4mb 74f 80f
1:30 21 25 mph 1011.4mb 74f 80f
1:24 20 23 mph 1011.5mb 74f 80f
1:18 17 21 mph 1011.6mb 74f 80f
1:12 13 17 mph 1011.5mb 74f 79f
1:06 16 20 mph 1011.5mb 74f 77f
1:00 16 18 mph 1011.6mb 74f 80f
12:54 14 16 mph 1011.7mb 74f 81f
12:48 14 17 mph 1011.8mb 74f 80f
12:42 16 21 mph 1011.8mb 74f 81f
12:36 14 16 mph 1011.9mb 74f 81f
12:30 16 18 mph 1011.9mb 74f 80f
12:24 10 13 mph 1012.1mb 74f 80f
12:18 10 15 mph 1012.1mb 74f 80f
12:12 11 15 mph 1012.1mb 74f 80f
12:06 15 18 mph 1012.2mb 74f 80f
12:00 11 21 mph 1012.3mb 74f 79f
11:54 16 18 mph 1012.3mb 74f 80f
11:48 14 16 mph 1012.4mb 74f 79f
11:42 13 15 mph 1012.5mb 74f 79f
11:36 11 15 mph 1012.6mb 74f 79f
11:30 14 15 mph 1012.7mb 74f 79f
11:24 13 16 mph 1012.9mb 74f 79f
11:18 11 13 mph 1012.9mb 74f 79f
11:12 11 15 mph 1013.1mb 74f 78f
11:06 13 14 mph 1013.1mb 74f 78f
11:00 13 16 mph 1013.1mb 74f 78f
10:54 10 11 mph 1013.3mb 74f 78f
10:48 10 15 mph 1013.2mb 74f 78f
10:42 16 18 mph 1013.3mb 74f 77f
10:36 15 17 mph 1013.4mb 74f 77f
10:30 14 15 mph 1013.4mb 74f 77f
10:24 11 14 mph 1013.6mb 74f 77f
10:18 14 17 mph 1013.8mb 74f 77f
10:12 15 18 mph 1013.7mb 74f 77f
10:06 14 20 mph 1013.8mb 74f 77f
10:00 16 21 mph 1013.8mb 73f 77f
9:54 13 16 mph 1013.8mb 73f 77f
9:48 15 16 mph 1013.8mb 73f 76f
9:42 14 15 mph 1013.8mb 73f 76f
9:36 13 16 mph 1013.9mb 73f 76f
9:30 14 17 mph 1014mb 73f 76f
9:24 15 16 mph 1014.1mb 73f 76f
9:18 13 14 mph 1014.3mb 72f 76f
9:12 11 13 mph 1014.3mb 72f 76f
9:06 11 14 mph 1014.3mb 72f 75f
9:00 11 14 mph 1014.4mb 72f 75f
8:54 13 15 mph 1014.4mb 72f 75f
8:48 13 17 mph 1014.4mb 72f 75f
8:42 11 14 mph 1014.5mb 71f 74f
8:36 10 14 mph 1014.6mb 71f 74f
8:30 14 16 mph 1014.6mb 72f 74f
8:24 14 16 mph 1014.6mb 72f 74f
8:18 11 14 mph 1014.7mb 72f 73f
8:12 13 14 mph 1014.7mb 72f 73f
8:06 11 13 mph 1014.8mb 72f 74f
8:00 10 13 mph 1014.8mb 72f 73f
7:54 13 16 mph 1014.9mb 72f 73f
7:48 10 14 mph 1014.9mb 72f 73f
7:42 8 10 mph 1014.9mb 73f 73f
7:36 7 9 mph 1014.9mb 73f 73f
7:30 8 13 mph 1014.8mb 73f 73f
7:24 8 11 mph 1014.7mb 73f 73f
7:18 8 10 mph 1014.7mb 73f 73f
7:12 8 10 mph 1014.6mb 73f 73f
7:06 9 10 mph 1014.6mb 73f 72f
7:00 7 11 mph 1014.8mb 73f 72f
6:54 8 10 mph 1014.8mb 73f 72f
6:48 8 9 mph 1014.8mb 73f 72f
6:42 8 9 mph 1014.8mb 73f 72f
6:36 8
mph
1014.7mb 74f 71f
6:30 8 9 mph 1014.7mb 74f 71f
6:24 8 9 mph 1014.7mb 74f 71f
6:18 8 10 mph 1014.7mb 74f 71f
6:12 8 10 mph 1014.7mb 74f 71f
6:06 9 10 mph 1014.7mb 74f 70f
6:00 9 10 mph 1014.7mb 74f 70f
5:54 9 10 mph 1014.7mb 74f 70f
5:48 8 10 mph 1014.8mb 74f 70f
5:42 9 11 mph 1014.7mb 74f 70f
5:36 8 11 mph 1014.7mb 74f 70f
5:30 7 9 mph 1014.8mb 74f 70f
5:24 7 10 mph 1014.9mb 74f 70f
5:18 10 13 mph 1014.9mb 74f 70f
5:12 10 14 mph 1014.8mb 74f 70f
5:06 9 11 mph 1014.8mb 74f 70f
5:00 10 11 mph 1015mb 74f 70f
4:54 10 11 mph 1015mb 74f 70f
4:48 10 13 mph 1015mb 74f 70f
4:42 9 11 mph 1015mb 74f 70f
4:36 10 13 mph 1015.1mb 74f 70f
4:30 10 13 mph 1015.1mb 74f 70f
4:24 10 13 mph 1015mb 74f 70f
4:18 11 13 mph 1015.1mb 74f 70f
4:12 10 14 mph 1015.2mb 74f 70f
4:06 10 13 mph 1015.2mb 74f 70f
4:00 10 15 mph 1015.1mb 74f 70f
3:54 10 13 mph 1015.1mb 74f 70f
3:48 11 14 mph 1015.1mb 74f 70f
3:42 10 11 mph 1015mb 74f 70f
3:36 10 13 mph 1015mb 74f 70f
3:30 9 11 mph 1015.2mb 74f 70f
3:24 9 14 mph 1015.2mb 75f 70f
3:18 10 13 mph 1015.3mb 75f 70f
3:12 10 13 mph 1015.3mb 75f 70f
3:06 10 13 mph 1015.3mb 75f 70f
3:00 10 13 mph 1015.3mb 75f 70f
2:54 9 10 mph 1015.4mb 75f 70f
2:48 9 11 mph 1015.5mb 75f 70f
2:42 10 14 mph 1015.6mb 75f 70f
2:36 13 14 mph 1015.7mb 75f 71f
2:30 10 14 mph 1015.8mb 75f 71f
2:24 11 14 mph 1015.8mb 75f 71f
2:18 11 15 mph 1015.8mb 75f 71f
2:12 11 14 mph 1015.8mb 75f 71f
2:06 11 13 mph 1015.9mb 75f 71f
2:00 10 14 mph 1015.9mb 75f 71f
1:54 10 11 mph 1016mb 75f 71f
1:48 10 11 mph 1016.1mb 75f 71f
1:42 9 11 mph 1016.2mb 75f 71f
1:36 9 11 mph 1016.4mb 75f 71f
1:30 10 13 mph 1016.3mb 75f 71f
1:24 10 13 mph 1016.3mb 75f 71f
1:18 10 13 mph 1016.3mb 75f 71f
1:12 11 14 mph 1016.3mb 75f 71f
1:06 10 13 mph 1016.3mb 75f 71f
1:00 11 13 mph 1016.3mb 75f 71f
12:54 10 13 mph 1016.3mb 75f 71f
12:48 11 13 mph 1016.4mb 75f 71f
12:42 10 14 mph 1016.4mb 75f 71f
12:36 11 14 mph 1016.5mb 75f 71f
12:30 10 13 mph 1016.5mb 75f 72f
12:24 11 14 mph 1016.6mb 75f 72f
12:18 10 14 mph 1016.8mb 75f 72f
12:12 11 14 mph 1016.8mb 74f 72f
12:06 11 14 mph 1016.8mb 75f 72f
12:00 11 15 mph 1016.8mb 75f 72f
mar 07/22 11:54 13 15 mph 1016.8mb 75f 72f
11:48 13 14 mph 1016.8mb 75f 72f
11:42 11 16 mph 1016.9mb 75f 72f
11:36 13 14 mph 1017.1mb 75f 72f
11:30 14 17 mph 1017.1mb 75f 72f
11:24 14 16 mph 1017.1mb 75f 72f
11:18 14 15 mph 1017mb 75f 73f
11:12 13 14 mph 1017mb 75f 73f
11:06 14 16 mph 1017mb 75f 73f
11:00 13 17 mph 1016.9mb 75f 73f
10:54 15 18 mph 1016.8mb 75f 73f
10:48 14 20 mph 1017mb 75f 73f
10:42 14 21 mph 1016.9mb 75f 73f
10:36 15 20 mph 1017mb 75f 73f
10:30 14 17 mph 1017.1mb 75f 73f
10:24 14 17 mph 1017.2mb 75f 73f
10:18 15 20 mph 1017.3mb 75f 73f
10:12 15 20 mph 1017.4mb 75f 73f
10:06 16 20 mph 1017.3mb 75f 73f
10:00 15 18 mph 1017.3mb 75f 73f
9:54 15 18 mph 1017.4mb 75f 73f
9:48 16 18 mph 1017.4mb 75f 73f
9:42 17 21 mph 1017.4mb 75f 73f
9:36 16 20 mph 1017.4mb 75f 73f
9:30 16 21 mph 1017.4mb 75f 73f
9:24 16 22 mph 1017.3mb 75f 73f
9:18 18 21 mph 1017.3mb 75f 74f
9:12 18 21 mph 1017.5mb 75f 74f
9:06 18 21 mph 1017.5mb 75f 74f
9:00 18 22 mph 1017.5mb 74f 74f
8:54 17 21 mph 1017.5mb 75f 74f
8:48 17 21 mph 1017.6mb 74f 74f
8:42 17 21 mph 1017.5mb 74f 74f
8:36 15 20 mph 1017.4mb 74f 74f
8:30 17 22 mph 1017.4mb 74f 74f
8:24 16 21 mph 1017.4mb 74f 74f
8:18 15 18 mph 1017.4mb 73f 74f
8:12 16 20 mph 1017.4mb 73f 75f
8:06 18 22 mph 1017.4mb 73f 75f
8:00 16 21 mph 1017.5mb 73f 75f
7:54 17 22 mph 1017.6mb 73f 75f
7:48 16 20 mph 1017.5mb 72f 76f
7:42 15 20 mph 1017.5mb 72f 76f
7:36 15 20 mph 1017.5mb 72f 76f
7:30 16 20 mph 1017.5mb 72f 76f
7:24 14 17 mph 1017.4mb 72f 77f
7:18 14 18 mph 1017.3mb 72f 77f
7:12 16 18 mph 1017.2mb 72f 77f
7:06 14 16 mph 1017.3mb 72f 77f
7:00 15 17 mph 1017.4mb 72f 78f
6:54 16 18 mph 1017.3mb 72f 78f
6:48 14 15 mph 1017.3mb 73f 78f
6:42 14 16 mph 1017.4mb 73f 79f
6:36 11 15 mph 1017.4mb 73f 79f
6:30 15 18 mph 1017.4mb 73f 79f
6:24 13 17 mph 1017.5mb 73f 79f
6:18 15 18 mph 1017.5mb 73f 79f
6:12 14 18 mph 1017.5mb 73f 79f
6:06 16 18 mph 1017.5mb 73f 80f
6:00 14 22 mph 1017.5mb 73f 80f
5:54 17 21 mph 1017.5mb 73f 80f
5:48 18 22 mph 1017.6mb 73f 80f
5:42 18 21 mph 1017.6mb 74f 80f
5:36 16 21 mph 1017.7mb 74f 80f
5:30 17 20 mph 1017.7mb 74f 80f
5:24 16 20 mph 1017.7mb 74f 81f
5:18 17 22 mph 1017.6mb 74f 80f
5:12 18 22 mph 1017.6mb 74f 80f
5:06 18 23 mph 1017.6mb 74f 80f
5:00 16 20 mph 1017.6mb 76f 81f
4:54 16 20 mph 1017.6mb 76f 80f
4:48 15 18 mph 1017.7mb 76f 80f
4:42 16 20 mph 1017.8mb 76f 81f
4:36 16 18 mph 1017.7mb 76f 81f
4:30 16 18 mph 1017.8mb 76f 81f
4:24 15 17 mph 1017.8mb 76f 81f
4:18 15 18 mph 1017.8mb 76f 80f
4:12 16 20 mph 1017.8mb 76f 81f
4:06 16 20 mph 1017.9mb 76f 81f
4:00 17 21 mph 1017.9mb 76f 81f
3:54 18 22 mph 1017.9mb 76f 81f
3:48 18 22 mph 1017.9mb 76f 81f
3:42 18 22 mph 1017.9mb 76f 81f
3:36 15 18 mph 1018mb 76f 81f
3:30 16 17 mph 1018.2mb 76f 82f
3:24 15 17 mph 1018.1mb 76f 82f
3:18 15 17 mph 1018.2mb 76f 81f
3:12 15 16 mph 1018.2mb 76f 81f
3:06 15 17 mph 1018.3mb 76f 81f
3:00 15 16 mph 1018.4mb 76f 81f
2:54 15 20 mph 1018.4mb 75f 77f
2:48 17 20 mph 1018.4mb 75f 77f
2:42 16 18 mph 1018.6mb 75f 77f
2:36 16 18 mph 1018.6mb 75f 77f
2:30 17 20 mph 1018.6mb 75f 77f
2:24 18 20 mph 1018.5mb 75f 76f
2:18 16 20 mph 1018.6mb 75f 77f
2:12 17 20 mph 1018.6mb 75f 77f
2:06 16 18 mph 1018.6mb 75f 77f
2:00 15 17 mph 1018.7mb 75f 77f
1:54 16 17 mph 1018.9mb 75f 77f
1:48 15 17 mph 1019mb 75f 78f
1:42 14 16 mph 1019mb 75f 78f
1:36 14 17 mph 1019mb 75f 78f
1:30 15 17 mph 1019mb 75f 78f
1:24 15 17 mph 1019mb 75f 78f
1:18 15 17 mph 1019mb 75f 78f
1:12 14
mph
1019.2mb 75f 78f
1:06 13 14 mph 1019.3mb 75f 78f
1:00 13 14 mph 1019.4mb 74f 78f
12:54 13
mph
1019.5mb 74f 78f
12:48 11 14 mph 1019.5mb 74f 77f
12:42 11 13 mph 1019.6mb 74f 77f
12:36 10 11 mph 1019.6mb 74f 77f
12:30 10 13 mph 1019.6mb 74f 77f
12:24 11 13 mph 1019.6mb 74f 77f
12:18 10 11 mph 1019.7mb 74f 77f
12:12 10 13 mph 1019.7mb 74f 76f
12:06 11 13 mph 1019.7mb 74f 76f
12:00 13 14 mph 1019.7mb 74f 76f
11:54 11 13 mph 1019.8mb 75f 76f
11:48 13 14 mph 1019.8mb 75f 76f
11:42 10 11 mph 1019.9mb 74f 76f
11:36 10
mph
1020mb 74f 76f
11:30 10
mph
1020mb 75f 76f
11:24 10
mph
1020.1mb 75f 76f
11:18 9 11 mph 1020mb 75f 76f
11:12 10 11 mph 1020mb 75f 75f
11:06 10 11 mph 1019.9mb 75f 75f
11:00 10 11 mph 1019.9mb 75f 75f
10:54 10 11 mph 1019.9mb 74f 74f
10:48 10 13 mph 1019.9mb 74f 74f
10:42 10 11 mph 1019.9mb 74f 74f
10:36 10 11 mph 1020mb 74f 74f
10:30 10 11 mph 1020mb 74f 74f
10:24 10 13 mph 1020.1mb 74f 74f
10:18 7 8 mph 1020mb 74f 77f
10:12 7 8 mph 1020.1mb 74f 76f
10:06 8
mph
1020.1mb 74f 76f
10:00 7 8 mph 1020.1mb 73f 77f
9:54 7
mph
1020.1mb 73f 76f
9:48 7 8 mph 1020.1mb 73f 76f
9:42 7 8 mph 1020.2mb 73f 76f
9:36 7 8 mph 1020.2mb 73f 76f
9:30 7
mph
1020.3mb 73f 76f
9:24 6 7 mph 1020.4mb 72f 76f
9:18 6 7 mph 1020.4mb 72f 75f
9:12 6 7 mph 1020.5mb 72f 75f
9:06 7
mph
1020.5mb 72f 75f
9:00 7
mph
1020.6mb 72f 75f
8:54 7
mph
1020.7mb 72f 74f
8:48 7
mph
1020.7mb 72f 74f
8:42 7 8 mph 1020.8mb 72f 73f
8:36 6 7 mph 1020.9mb 72f 73f
8:30 6
mph
1021mb 72f 73f
8:24 5 6 mph 1021.1mb 72f 73f
8:18 6
mph
1021.1mb 72f 73f
8:12 6 7 mph 1021.1mb 72f 72f
8:06 6 7 mph 1021.1mb 72f 72f
8:00 6 7 mph 1021.1mb 72f 71f
7:54 7
mph
1021.1mb 72f 71f
7:48 7 8 mph 1021mb 72f 71f
7:42 7 8 mph 1021mb 72f 70f
7:36 7 8 mph 1021.1mb 72f 70f
7:30 6 7 mph 1021mb 72f 70f
7:24 7 8 mph 1021mb 72f 69f
7:18 6 7 mph 1021mb 72f 69f
7:12 6
mph
1021mb 72f 69f
7:06 6 7 mph 1021mb 72f 69f
7:00 6 7 mph 1021mb 72f 68f
6:54 6 8 mph 1020.9mb 73f 68f
6:48 6 8 mph 1020.9mb 73f 68f
6:42 6 7 mph 1020.9mb 73f 68f
6:36 5 6 mph 1021mb 73f 67f
6:30 5 6 mph 1021mb 73f 67f
6:24 5 6 mph 1021mb 73f 67f
6:18 5 6 mph 1021mb 73f 67f
6:12 5 6 mph 1021mb 73f 67f
6:06 5 6 mph 1021mb 73f 67f
6:00 5 6 mph 1021mb 74f 66f
5:54 5 7 mph 1021.1mb 74f 66f
5:48 6 7 mph 1021.1mb 74f 66f
5:42 6 7 mph 1021mb 74f 66f
5:36 6 8 mph 1021mb 74f 66f
5:30 6 7 mph 1021mb 74f 66f
5:24 7 8 mph 1021mb 74f 66f
5:18 6 7 mph 1021mb 74f 66f
5:12 6 8 mph 1021mb 74f 66f
5:06 6 7 mph 1020.9mb 74f 66f
5:00 6 7 mph 1020.9mb 74f 66f
4:54 6 9 mph 1020.9mb 74f 66f
4:48 7 8 mph 1020.9mb 74f 66f
4:42 7 9 mph 1020.9mb 74f 66f
4:36 7 8 mph 1020.9mb 74f 66f
4:30 8 9 mph 1020.8mb 74f 66f
4:24 8 9 mph 1020.8mb 74f 66f
4:18 8 9 mph 1020.8mb 74f 66f
4:12 8 10 mph 1020.8mb 74f 67f
4:06 8 10 mph 1020.8mb 74f 67f
4:00 8 10 mph 1020.8mb 74f 66f
3:54 8 10 mph 1020.9mb 74f 66f
3:48 8 9 mph 1020.9mb 74f 66f
3:42 7 9 mph 1020.9mb 74f 66f
3:36 8 9 mph 1020.9mb 74f 66f
3:30 9 10 mph 1020.8mb 74f 66f
3:24 7 9 mph 1020.8mb 74f 66f
3:18 8 9 mph 1020.8mb 74f 66f
3:12 8
mph
1020.8mb 74f 66f
3:06 6 7 mph 1020.8mb 74f 67f
3:00 6 7 mph 1020.8mb 74f 66f
2:54 6 7 mph 1020.8mb 74f 66f
2:48 6 7 mph 1020.8mb 74f 66f
2:42 6 7 mph 1020.8mb 74f 66f
2:36 7 8 mph 1020.8mb 74f 66f
2:30 7 8 mph 1020.8mb 74f 67f
2:24 7 9 mph 1020.7mb 74f 67f
2:18 8 9 mph 1020.8mb 74f 67f
2:12 7 8 mph 1020.8mb 74f 67f
2:06 7 8 mph 1020.9mb 74f 67f
2:00 5 6 mph 1020.9mb 74f 67f
1:54 5 8 mph 1020.9mb 74f 67f
1:48 6 8 mph 1020.9mb 74f 67f
1:42 7 8 mph 1020.9mb 74f 67f
1:36 8 10 mph 1021mb 74f 67f
1:30 8 9 mph 1021mb 74f 67f
1:24 6 8 mph 1021.1mb 74f 67f
1:18 7 8 mph 1021.2mb 74f 67f
1:12 8 10 mph 1021.1mb 74f 67f
1:06 9 11 mph 1021.1mb 74f 67f
1:00 8 9 mph 1021.2mb 74f 67f
12:54 8 10 mph 1021.2mb 74f 67f
12:48 8 9 mph 1021.3mb 74f 67f
12:42 7 8 mph 1021.3mb 74f 67f
12:36 8 9 mph 1021.3mb 74f 67f
12:30 7 8 mph 1021.3mb 74f 67f
12:24 7 9 mph 1021.3mb 74f 67f
12:18 8 9 mph 1021.3mb 74f 67f
12:12 6 8 mph 1021.3mb 75f 67f
12:06 6 8 mph 1021.4mb 75f 67f
12:00 6 7 mph 1021.5mb 75f 67f
lun 07/21 11:54 7 8 mph 1021.5mb 75f 68f
11:48 7 9 mph 1021.5mb 75f 68f
11:42 7 8 mph 1021.5mb 75f 68f
11:36 7 8 mph 1021.6mb 75f 68f
11:30 7 8 mph 1021.6mb 75f 68f
11:24 7 8 mph 1021.5mb 75f 68f
11:18 7
mph
1021.6mb 75f 68f
11:12 6 7 mph 1021.5mb 75f 69f
11:06 7
mph
1021.6mb 75f 69f
11:00 6 8 mph 1021.7mb 75f 69f
10:54 7 8 mph 1021.7mb 75f 69f
10:48 6 7 mph 1021.6mb 75f 69f
10:42 6 7 mph 1021.6mb 75f 69f
10:36 6 7 mph 1021.5mb 75f 69f
10:30 6 7 mph 1021.6mb 75f 69f
10:24 6 8 mph 1021.6mb 75f 69f
10:18 7 9 mph 1021.7mb 75f 69f
10:12 8 9 mph 1021.7mb 75f 69f
10:06 7 8 mph 1021.7mb 75f 69f
10:00 7 9 mph 1021.7mb 75f 69f
9:54 8 9 mph 1021.7mb 75f 70f
9:48 8 9 mph 1021.7mb 75f 70f
9:42 8 9 mph 1021.7mb 75f 70f
9:36 8 9 mph 1021.8mb 75f 70f
9:30 8 10 mph 1021.8mb 75f 70f
9:24 8 9 mph 1021.8mb 75f 70f
9:18 8 10 mph 1021.7mb 75f 70f
9:12 8 9 mph 1021.7mb 75f 70f
9:06 8 9 mph 1021.5mb 75f 70f
9:00 8 9 mph 1021.5mb 74f 70f
8:54 8 9 mph 1021.5mb 74f 71f
8:48 7 8 mph 1021.4mb 74f 71f
8:42 8 9 mph 1021.4mb 74f 71f
8:36 8 9 mph 1021.4mb 73f 71f
8:30 8 10 mph 1021.3mb 73f 71f
8:24 8 10 mph 1021.2mb 73f 71f
8:18 8 10 mph 1021.2mb 73f 71f
8:12 9 11 mph 1021.3mb 73f 71f
8:06 9 11 mph 1021.2mb 73f 71f
8:00 10 11 mph 1021.2mb 73f 71f
7:54 10 13 mph 1021.2mb 73f 72f
7:48 11 13 mph 1021.1mb 73f 72f
7:42 11 13 mph 1021.1mb 72f 72f
7:36 11 13 mph 1021mb 72f 72f
7:30 13 14 mph 1021mb 72f 72f
7:24 10 13 mph 1021.1mb 72f 73f
7:18 9 11 mph 1021mb 72f 73f
7:12 10 13 mph 1021mb 72f 73f
7:06 10 11 mph 1021mb 72f 73f
7:00 9 10 mph 1021mb 72f 74f
6:54 10 11 mph 1021.1mb 72f 74f
6:48 10 11 mph 1021mb 72f 74f
6:42 10 11 mph 1020.9mb 72f 74f
6:36 10 11 mph 1020.9mb 72f 74f
6:30 10 11 mph 1020.9mb 72f 74f
6:24 10
mph
1020.9mb 72f 74f
6:18 9 11 mph 1020.8mb 72f 74f
6:12 10
mph
1020.8mb 72f 75f
6:06 9
mph
1020.7mb 72f 75f
6:00 9
mph
1020.7mb 72f 75f
5:54 8 10 mph 1020.6mb 72f 75f
5:48 8 10 mph 1020.5mb 72f 75f
5:42 9
mph
1020.5mb 72f 75f
5:36 9 10 mph 1020.5mb 73f 75f
5:30 10
mph
1020.4mb 73f 75f
5:24 9 10 mph 1020.4mb 73f 75f
5:18 9 10 mph 1020.5mb 73f 75f
5:12 9 11 mph 1020.5mb 73f 75f
5:06 10 11 mph 1020.5mb 73f 75f
5:00 10 11 mph 1020.5mb 73f 75f
4:54 10 11 mph 1020.5mb 73f 75f
4:48 9 10 mph 1020.5mb 73f 76f
4:42 9
mph
1020.6mb 74f 76f
4:36 5 6 mph 1020.6mb 74f 77f
4:30 5 6 mph 1020.7mb 74f 77f
4:24 3 5 mph 1020.8mb 74f 77f
4:18 3 5 mph 1020.8mb 74f 77f
4:12 5 6 mph 1020.8mb 74f 76f
4:06 6
mph
1020.8mb 74f 76f
4:00 6
mph
1020.9mb 74f 76f
3:54 5
mph
1020.9mb 74f 76f
3:48 3 5 mph 1020.9mb 74f 76f
3:42 3 5 mph 1020.9mb 74f 76f
3:36 5 6 mph 1020.9mb 74f 76f
3:30 5 6 mph 1020.9mb 74f 76f
3:24 5
mph
1021mb 74f 76f
3:18 5
mph
1021mb 74f 76f
3:12 3 6 mph 1021mb 74f 76f
3:06 3 6 mph 1021mb 74f 76f
3:00 3 5 mph 1021.1mb 74f 75f
2:54 3
mph
1021.2mb 74f 75f
2:48 2 3 mph 1021.3mb 74f 75f
2:42 3 5 mph 1021.3mb 74f 75f
2:36 3 5 mph 1021.4mb 73f 75f
2:30 6
mph
1021.4mb 73f 74f
2:24 3 6 mph 1021.4mb 73f 74f
2:18 5 7 mph 1021.4mb 73f 74f
2:12 6 7 mph 1021.4mb 73f 74f
2:06 6 7 mph 1021.4mb 73f 74f
2:00 5 6 mph 1021.5mb 73f 74f
1:54 6 7 mph 1021.5mb 73f 74f
1:48 6
mph
1021.5mb 73f 74f
1:42 5 6 mph 1021.5mb 73f 74f
1:36 6
mph
1021.5mb 73f 74f
1:30 6 8 mph 1021.5mb 73f 74f
1:24 7 9 mph 1021.6mb 73f 73f
1:18 9
mph
1021.6mb 73f 73f
1:12 8
mph
1021.7mb 73f 73f
1:06 7 8 mph 1021.7mb 73f 73f
1:00 6 7 mph 1021.7mb 73f 73f
12:54 6 8 mph 1021.7mb 73f 73f
12:48 8 10 mph 1021.7mb 73f 72f
12:42 9 13 mph 1021.8mb 73f 73f
12:36 9 13 mph 1021.9mb 73f 72f
12:30 8 9 mph 1021.9mb 73f 71f
12:24 8 11 mph 1021.9mb 73f 72f
12:18 9 11 mph 1022mb 73f 71f
12:12 9 13 mph 1022mb 73f 71f
12:06 9 11 mph 1022.1mb 73f 71f
12:00 9 13 mph 1022.1mb 73f 71f
11:54 9 14 mph 1022.2mb 73f 71f
11:48 13 15 mph 1022.2mb 73f 71f
11:42 14 15 mph 1022.2mb 73f 71f
11:36 11 14 mph 1022.2mb 72f 70f
11:30 13 14 mph 1022.2mb 72f 70f
11:24 10 14 mph 1022.2mb 72f 69f
11:18 11 14 mph 1022.2mb 72f 69f
11:12 13 14 mph 1022.2mb 72f 69f
11:06 13 14 mph 1022.2mb 72f 69f
11:00 13 14 mph 1022.2mb 72f 69f
10:54 11 14 mph 1022.2mb 72f 68f
10:48 10 14 mph 1022.2mb 72f 68f
10:42 13 15 mph 1022.2mb 72f 68f
10:36 14 15 mph 1022.2mb 72f 68f
10:30 13 15 mph 1022.3mb 72f 68f
10:24 13 15 mph 1022.2mb 72f 68f
10:18 14 16 mph 1022.2mb 72f 68f
10:12 11 14 mph 1022.2mb 72f 67f
10:06 11 14 mph 1022.2mb 72f 67f
10:00 11 14 mph 1022.2mb 72f 67f
9:54 11 15 mph 1022.2mb 72f 67f
9:48 11 14 mph 1022.2mb 72f 67f
9:42 13 14 mph 1022.2mb 72f 67f
9:36 10 13 mph 1022.3mb 72f 66f
9:30 11 14 mph 1022.3mb 72f 66f
9:24 11 14 mph 1022.4mb 72f 66f
9:18 13 14 mph 1022.4mb 72f 66f
9:12 10 14 mph 1022.5mb 72f 66f
9:06 10 14 mph 1022.5mb 72f 67f
9:00 11 13 mph 1022.5mb 72f 66f
8:54 10 15 mph 1022.4mb 72f 66f
8:48 11 13 mph 1022.3mb 72f 66f
8:42 8 11 mph 1022.3mb 72f 66f
8:36 7 11 mph 1022.2mb 72f 66f
8:30 9 10 mph 1022.3mb 72f 65f
8:24 9 13 mph 1022.3mb 72f 65f
8:18 9 13 mph 1022.2mb 72f 65f
8:12 9 13 mph 1022.1mb 72f 65f
8:06 9 11 mph 1022mb 72f 65f
8:00 10 13 mph 1021.9mb 72f 65f
7:54 10 13 mph 1021.9mb 72f 64f
7:48 9 11 mph 1021.9mb 72f 64f
7:42 9 11 mph 1021.8mb 72f 64f
7:36 8 11 mph 1021.8mb 72f 64f
7:30 8 10 mph 1021.7mb 72f 64f
7:24 7 9 mph 1021.7mb 72f 64f
7:18 7 9 mph 1021.6mb 72f 64f
7:12 7 9 mph 1021.6mb 72f 64f
7:06 8 9 mph 1021.5mb 72f 64f
7:00 7 9 mph 1021.5mb 72f 64f
6:54 7 9 mph 1021.5mb 72f 64f
6:48 7 8 mph 1021.4mb 72f 64f
6:42 7 8 mph 1021.4mb 72f 64f
6:36 7 9 mph 1021.3mb 72f 64f
6:30 8 9 mph 1021.2mb 72f 64f
6:24 7 10 mph 1021.2mb 72f 64f
6:18 8 9 mph 1021.2mb 72f 65f
6:12 7 15 mph 1021.2mb 72f 65f
6:06 13 16 mph 1021.1mb 72f 65f
6:00 11 15 mph 1021mb 72f 65f
5:54 11 14 mph 1021.1mb 72f 65f
5:48 11 14 mph 1021mb 72f 65f
5:42 13 15 mph 1021mb 72f 65f
5:36 13 16 mph 1020.9mb 72f 65f
5:30 14 15 mph 1020.9mb 72f 65f
5:24 13 16 mph 1020.9mb 72f 65f
5:18 14 16 mph 1020.9mb 72f 65f
5:12 13 18 mph 1020.8mb 72f 65f
5:06 14 18 mph 1020.8mb 72f 65f
5:00 14 16 mph 1020.7mb 72f 65f
4:54 13 15 mph 1020.7mb 72f 65f
4:48 11 18 mph 1020.6mb 72f 65f
4:42 15 18 mph 1020.6mb 72f 65f
4:36 15 16 mph 1020.6mb 72f 65f
4:30 14 16 mph 1020.6mb 72f 65f
4:24 10 14 mph 1020.6mb 72f 65f
4:18 11 14 mph 1020.5mb 72f 64f
4:12 13 14 mph 1020.5mb 72f 64f
4:06 13 15 mph 1020.4mb 72f 64f
4:00 11 14 mph 1020.4mb 72f 64f
3:54 11 15 mph 1020.3mb 72f 64f
3:48 13 15 mph 1020.4mb 72f 64f
3:42 10 14 mph 1020.4mb 72f 64f
3:36 11 14 mph 1020.4mb 72f 64f
3:30 10 14 mph 1020.3mb 72f 64f
3:24 11 14 mph 1020.3mb 72f 64f
3:18 11 14 mph 1020.3mb 73f 64f
3:12 10 14 mph 1020.3mb 73f 64f
3:06 9 14 mph 1020.3mb 73f 64f
3:00 11 14 mph 1020.3mb 73f 64f
2:54 13 16 mph 1020.4mb 73f 64f
2:48 13 16 mph 1020.4mb 73f 64f
2:42 13 16 mph 1020.4mb 73f 64f
2:36 14 17 mph 1020.4mb 73f 64f
2:30 15 16 mph 1020.3mb 73f 64f
2:24 14 17 mph 1020.4mb 73f 64f
2:18 14 17 mph 1020.3mb 73f 64f
2:12 14 15 mph 1020.3mb 73f 64f
2:06 14 17 mph 1020.3mb 73f 64f
2:00 15 16 mph 1020.4mb 73f 64f
1:54 14 15 mph 1020.4mb 73f 64f
1:48 13 15 mph 1020.5mb 73f 64f
1:42 13 14 mph 1020.5mb 73f 64f
1:36 11 14 mph 1020.5mb 73f 64f
1:30 13 14 mph 1020.5mb 73f 64f
1:24 13 14 mph 1020.5mb 73f 64f
1:18 13 14 mph 1020.6mb 73f 64f
1:12 11 13 mph 1020.6mb 73f 64f
1:06 11 14 mph 1020.6mb 73f 64f
1:00 11 13 mph 1020.6mb 73f 65f
12:54 11 13 mph 1020.7mb 73f 65f
12:48 9 11 mph 1020.7mb 73f 65f
12:42 10 11 mph 1020.7mb 73f 65f
12:36 10 13 mph 1020.7mb 73f 65f
12:30 10 14 mph 1020.7mb 73f 65f
12:24 9 11 mph 1020.8mb 73f 65f
12:18 9 11 mph 1020.8mb 73f 65f
12:12 9 13 mph 1020.8mb 73f 65f
12:06 10 14 mph 1020.8mb 73f 65f
12:00 10 15 mph 1020.9mb 73f 65f
dom 07/20 11:54 13 15 mph 1020.9mb 73f 65f
11:48 13 15 mph 1021mb 73f 65f
11:42 11 15 mph 1021.1mb 73f 65f
11:36 11 14 mph 1021.1mb 73f 65f
11:30 11 14 mph 1021.1mb 73f 65f
11:24 13 14 mph 1021.1mb 73f 64f
11:18 13 15 mph 1021.1mb 73f 65f
11:12 14 16 mph 1021.1mb 73f 64f
11:06 13 16 mph 1021.1mb 73f 64f
11:00 13 15 mph 1021.2mb 73f 64f
10:54 13 15 mph 1021.2mb 73f 64f
10:48 13 16 mph 1021.2mb 73f 64f
10:42 14 16 mph 1021.2mb 73f 64f
10:36 13 16 mph 1021.2mb 73f 64f
10:30 13 15 mph 1021.3mb 73f 64f
10:24 14 16 mph 1021.2mb 73f 64f
10:18 15 16 mph 1021.2mb 73f 64f
10:12 15 16 mph 1021.2mb 73f 64f
10:06 15 17 mph 1021.2mb 73f 65f
10:00 16 17 mph 1021.1mb 73f 65f
9:54 14 16 mph 1021.1mb 73f 66f
9:48 14 15 mph 1021.1mb 73f 66f
9:42 13 16 mph 1021.1mb 73f 66f
9:36 15 18 mph 1021mb 73f 66f
9:30 16 18 mph 1020.9mb 73f 67f
9:24 16 18 mph 1020.9mb 73f 66f
9:18 16 18 mph 1020.9mb 73f 66f
9:12 16 17 mph 1020.9mb 73f 67f
9:06 15 17 mph 1020.9mb 73f 66f
9:00 14 16 mph 1020.8mb 73f 66f
8:54 14 16 mph 1020.8mb 73f 66f
8:48 15 16 mph 1020.8mb 73f 67f
8:42 14 15 mph 1020.7mb 73f 67f
8:36 15 16 mph 1020.7mb 73f 67f
8:30 14 17 mph 1020.7mb 73f 67f
8:24 14 17 mph 1020.6mb 73f 67f
8:18 15 17 mph 1020.5mb 73f 68f
8:12 14 15 mph 1020.5mb 73f 70f
8:06 14 16 mph 1020.4mb 73f 70f
8:00 14 15 mph 1020.3mb 73f 70f
7:54 14 15 mph 1020.3mb 73f 70f
7:48 14 17 mph 1020.3mb 73f 70f
7:42 15 17 mph 1020.3mb 73f 70f
7:36 14 15 mph 1020.3mb 72f 70f
7:30 15 16 mph 1020.3mb 72f 70f
7:24 14 16 mph 1020.2mb 72f 71f
7:18 15 16 mph 1020.1mb 72f 71f
7:12 14 17 mph 1020.1mb 72f 71f
7:06 16 17 mph 1020.1mb 72f 71f
7:00 15 17 mph 1020mb 72f 71f
6:54 16
mph
1020mb 72f 71f
6:48 14 16 mph 1020mb 72f 71f
6:42 14 15 mph 1019.9mb 73f 71f
6:36 14 16 mph 1019.9mb 72f 72f
6:30 14 16 mph 1019.9mb 72f 72f
6:24 15 17 mph 1019.9mb 72f 72f
6:18 14 17 mph 1019.9mb 72f 72f
6:12 14 16 mph 1019.9mb 72f 72f
6:06 15 17 mph 1019.9mb 71f 72f
6:00 15 17 mph 1019.9mb 71f 72f
5:54 15 17 mph 1019.9mb 71f 72f
5:48 16 17 mph 1019.8mb 71f 72f
5:42 14 16 mph 1019.8mb 72f 73f
5:36 14 16 mph 1019.8mb 72f 73f
5:30 14 15 mph 1019.8mb 72f 73f
5:24 15 16 mph 1019.8mb 72f 73f
5:18 14 16 mph 1019.8mb 72f 73f
5:12 14 15 mph 1019.8mb 72f 73f
5:06 11 14 mph 1020mb 73f 73f
5:00 13 14 mph 1020mb 73f 73f
4:54 11 14 mph 1020mb 73f 73f
4:48 13 14 mph 1020mb 73f 73f
4:42 11 14 mph 1020mb 73f 73f
4:36 13 14 mph 1019.9mb 73f 73f
4:30 13 14 mph 1019.9mb 73f 73f
4:24 11 14 mph 1020mb 73f 73f
4:18 13 14 mph 1020.1mb 73f 73f
4:12 10 14 mph 1020.2mb 73f 73f
4:06 11 13 mph 1020.2mb 73f 73f
4:00 11 14 mph 1020.2mb 73f 73f
3:54 11 13 mph 1020.3mb 73f 73f
3:48 11 13 mph 1020.3mb 73f 73f
3:42 9 11 mph 1020.3mb 73f 73f